Time;durP1;ratioP1;P1;durP2;ratioP2;P2;SDS_P1;SDS_P2;PMS_P1;PMS_P2;Temp;Humidity;BMP_temperature;BMP_pressure;BME280_temperature;BME280_humidity;BME280_pressure;Samples;Min_cycle;Max_cycle;Signal;HPM_P1;HPM_P2
2022/10/17 00:01:48;;;;;;;4.85;3.90;;;10.30;99.90;;;;;;6292942;22;20003;-75
2022/10/17 00:04:14;;;;;;;5.55;3.97;;;10.30;99.90;;;;;;6291715;22;20106;-66
2022/10/17 00:06:39;;;;;;;7.55;3.55;;;10.30;99.90;;;;;;6262855;22;20019;-66
2022/10/17 00:09:05;;;;;;;5.22;3.33;;;10.30;99.90;;;;;;6289482;22;20459;-66
2022/10/17 00:11:31;;;;;;;4.03;3.25;;;10.20;99.90;;;;;;6263264;22;20031;-66
2022/10/17 00:13:56;;;;;;;4.70;2.75;;;10.00;99.90;;;;;;6290148;22;20005;-66
2022/10/17 00:16:32;;;;;;;3.08;2.85;;;10.00;99.90;;;;;;6287895;22;20348;-66
2022/10/17 00:18:59;;;;;;;4.20;2.97;;;9.90;99.90;;;;;;6291076;22;20030;-66
2022/10/17 00:21:25;;;;;;;4.60;3.22;;;9.90;99.90;;;;;;6291666;22;20011;-75
2022/10/17 00:23:51;;;;;;;6.57;3.33;;;9.90;99.90;;;;;;6291905;22;20069;-76
2022/10/17 00:26:17;;;;;;;4.93;3.30;;;9.90;99.90;;;;;;6291800;22;20043;-76
2022/10/17 00:28:48;;;;;;;3.67;3.30;;;9.80;99.90;;;;;;6291919;22;20005;-76
2022/10/17 00:31:15;;;;;;;6.07;3.60;;;9.80;99.90;;;;;;6288570;22;20764;-76
2022/10/17 00:33:42;;;;;;;4.22;3.28;;;9.80;99.90;;;;;;6265276;22;20358;-78
2022/10/17 00:36:17;;;;;;;5.22;3.03;;;9.80;99.90;;;;;;6295284;22;20006;-74
2022/10/17 00:38:46;;;;;;;5.90;3.42;;;9.80;99.90;;;;;;6295413;22;20006;-78
2022/10/17 00:41:14;;;;;;;5.15;3.65;;;9.90;99.90;;;;;;6295517;22;20566;-77
2022/10/17 00:44:01;;;;;;;4.70;3.38;;;9.80;99.90;;;;;;6292062;22;20084;-66
2022/10/17 00:46:30;;;;;;;3.35;3.05;;;9.90;99.90;;;;;;6290174;22;20007;-66
2022/10/17 00:48:57;;;;;;;3.88;3.08;;;9.90;99.90;;;;;;6290261;22;20087;-65
2022/10/17 00:51:34;;;;;;;6.32;3.75;;;9.80;99.90;;;;;;6290062;22;20003;-65
2022/10/17 00:54:01;;;;;;;4.40;3.97;;;9.80;99.90;;;;;;6290930;22;20013;-66
2022/10/17 00:56:26;;;;;;;6.35;4.47;;;9.90;99.90;;;;;;6291854;22;19999;-66
2022/10/17 00:58:52;;;;;;;3.80;3.20;;;9.90;99.90;;;;;;6291745;22;20011;-66
2022/10/17 01:01:18;;;;;;;4.38;3.42;;;9.90;99.90;;;;;;6292328;22;20053;-66
2022/10/17 01:03:43;;;;;;;6.78;3.83;;;9.90;99.90;;;;;;6290730;22;20007;-66
2022/10/17 01:06:09;;;;;;;4.00;2.53;;;9.80;99.90;;;;;;6291516;22;20023;-66
2022/10/17 01:08:35;;;;;;;3.30;3.00;;;9.70;99.90;;;;;;6292040;22;20010;-66
2022/10/17 01:11:10;;;;;;;5.88;3.60;;;9.60;99.90;;;;;;6292717;22;20526;-66
2022/10/17 01:13:53;;;;;;;3.08;2.78;;;9.60;99.90;;;;;;6293258;22;20003;-66
2022/10/17 01:16:18;;;;;;;4.05;3.20;;;9.60;99.90;;;;;;6291448;22;20098;-66
2022/10/17 01:19:32;;;;;;;5.43;3.50;;;9.50;99.90;;;;;;6290430;22;20114;-66
2022/10/17 01:22:01;;;;;;;8.55;3.70;;;9.50;99.90;;;;;;6292937;22;20034;-66
2022/10/17 01:24:47;;;;;;;5.18;4.65;;;9.50;99.90;;;;;;6287142;22;20056;-66
2022/10/17 01:27:31;;;;;;;7.18;4.80;;;9.60;99.90;;;;;;6291859;22;20007;-66
2022/10/17 01:30:18;;;;;;;5.50;4.35;;;9.70;99.90;;;;;;6293137;22;20007;-66
2022/10/17 01:32:56;;;;;;;7.15;4.63;;;9.70;99.90;;;;;;6293896;22;19996;-66
2022/10/17 01:35:27;;;;;;;4.45;3.53;;;9.70;99.90;;;;;;6263787;22;20014;-66
2022/10/17 01:38:05;;;;;;;4.05;3.60;;;9.70;99.90;;;;;;6291530;22;20002;-66
2022/10/17 01:40:44;;;;;;;6.72;4.63;;;9.60;99.90;;;;;;6264435;22;20007;-66
2022/10/17 01:43:30;;;;;;;6.30;4.22;;;9.60;99.90;;;;;;6291938;22;20433;-66
2022/10/17 01:46:09;;;;;;;5.95;4.90;;;9.60;99.90;;;;;;6292266;22;20030;-66
2022/10/17 01:48:36;;;;;;;5.07;3.88;;;9.60;99.90;;;;;;6294046;22;20078;-66
2022/10/17 01:51:11;;;;;;;3.78;2.60;;;9.60;99.90;;;;;;6293668;22;20066;-66
2022/10/17 01:53:45;;;;;;;3.80;3.40;;;9.50;99.90;;;;;;6293348;22;19999;-66
2022/10/17 01:56:13;;;;;;;4.78;2.80;;;9.40;99.90;;;;;;6292347;22;20000;-66
2022/10/17 01:58:49;;;;;;;5.10;2.85;;;9.30;99.90;;;;;;6293586;22;20448;-66
2022/10/17 02:01:16;;;;;;;5.22;2.90;;;9.20;99.90;;;;;;6264258;22;20014;-66
2022/10/17 02:03:44;;;;;;;3.85;2.80;;;9.20;99.90;;;;;;6293647;22;20046;-66
2022/10/17 02:06:09;;;;;;;3.67;3.13;;;9.20;99.90;;;;;;6293678;22;20069;-66
2022/10/17 02:08:44;;;;;;;4.18;3.47;;;9.30;99.90;;;;;;6265530;22;20455;-66
2022/10/17 02:11:15;;;;;;;4.03;3.08;;;9.30;99.90;;;;;;6289426;22;20012;-66
2022/10/17 02:14:17;;;;;;;3.92;3.28;;;9.30;99.90;;;;;;6294362;22;20463;-66
2022/10/17 02:17:12;;;;;;;5.20;2.70;;;9.30;99.90;;;;;;6293241;22;20086;-66
2022/10/17 02:19:53;;;;;;;3.75;2.75;;;9.40;99.90;;;;;;6294755;22;20046;-66
2022/10/17 02:22:18;;;;;;;4.07;3.03;;;9.40;99.90;;;;;;6292646;22;20325;-66
2022/10/17 02:24:47;;;;;;;4.43;2.90;;;9.40;99.90;;;;;;6292676;22;20009;-66
2022/10/17 02:27:27;;;;;;;6.78;3.40;;;9.40;99.90;;;;;;6293300;22;20034;-65
2022/10/17 02:30:19;;;;;;;6.05;4.47;;;9.30;99.90;;;;;;6295831;22;20324;-66
2022/10/17 02:33:31;;;;;;;5.72;3.40;;;9.40;99.90;;;;;;6293941;22;20006;-66
2022/10/17 02:36:01;;;;;;;3.75;3.38;;;9.30;99.90;;;;;;6295039;22;20113;-66
2022/10/17 02:38:28;;;;;;;4.35;3.53;;;9.30;99.90;;;;;;6267033;22;20010;-66
2022/10/17 02:40:54;;;;;;;5.47;3.40;;;9.20;99.90;;;;;;6295860;22;20007;-66
2022/10/17 02:43:22;;;;;;;4.28;3.00;;;9.20;99.90;;;;;;6294605;22;20029;-66
2022/10/17 02:45:48;;;;;;;6.00;3.88;;;9.10;99.90;;;;;;6293795;22;20380;-66
2022/10/17 02:48:33;;;;;;;4.75;3.67;;;9.10;99.90;;;;;;6295340;22;20037;-66
2022/10/17 02:51:51;;;;;;;4.82;3.60;;;9.10;99.90;;;;;;6293788;22;19999;-66
2022/10/17 02:54:21;;;;;;;3.10;2.75;;;9.10;99.90;;;;;;6209946;22;20597;-66
2022/10/17 02:56:54;;;;;;;3.47;2.83;;;9.00;99.90;;;;;;6296390;22;20084;-66
2022/10/17 02:59:21;;;;;;;3.15;2.60;;;8.90;99.90;;;;;;6269112;22;20089;-66
2022/10/17 03:01:50;;;;;;;3.50;2.78;;;8.90;99.90;;;;;;6266548;22;20007;-66
2022/10/17 03:04:17;;;;;;;3.58;2.70;;;8.90;99.90;;;;;;6294834;22;20069;-66
2022/10/17 03:06:45;;;;;;;4.55;2.63;;;8.90;99.90;;;;;;6266552;22;20635;-66
2022/10/17 03:09:10;;;;;;;2.60;2.40;;;8.90;99.90;;;;;;6293968;22;20124;-66
2022/10/17 03:11:36;;;;;;;13.60;2.85;;;8.90;99.90;;;;;;6295627;22;20519;-66
2022/10/17 03:14:02;;;;;;;3.80;2.90;;;8.90;99.90;;;;;;6293862;22;20436;-66
2022/10/17 03:16:28;;;;;;;5.05;3.05;;;8.90;99.90;;;;;;6291994;22;20003;-66
2022/10/17 03:18:54;;;;;;;3.70;3.05;;;8.90;99.90;;;;;;6294313;22;20026;-66
2022/10/17 03:21:19;;;;;;;4.53;3.25;;;8.90;99.90;;;;;;6294630;22;20078;-66
2022/10/17 03:23:45;;;;;;;6.35;3.33;;;8.90;99.90;;;;;;6292562;22;20086;-66
2022/10/17 03:26:11;;;;;;;6.47;2.75;;;9.00;99.90;;;;;;6294823;22;20068;-66
2022/10/17 03:28:36;;;;;;;4.63;3.03;;;9.00;99.90;;;;;;6294957;22;19999;-66
2022/10/17 03:31:07;;;;;;;4.18;2.72;;;8.90;99.90;;;;;;6294901;22;19999;-65
2022/10/17 03:33:32;;;;;;;3.83;3.42;;;8.90;99.90;;;;;;6293984;22;20180;-66
2022/10/17 03:35:58;;;;;;;3.67;3.28;;;8.90;99.90;;;;;;6293916;22;20038;-66
2022/10/17 03:38:23;;;;;;;5.15;3.80;;;8.80;99.90;;;;;;6293481;22;19999;-66
2022/10/17 03:40:55;;;;;;;6.13;3.63;;;8.80;99.90;;;;;;6292862;22;20003;-66
2022/10/17 03:43:21;;;;;;;5.88;3.78;;;8.90;99.90;;;;;;6294481;22;20053;-66
2022/10/17 03:45:46;;;;;;;5.50;3.85;;;8.90;99.90;;;;;;6291171;22;20444;-66
2022/10/17 03:48:12;;;;;;;8.10;4.30;;;8.90;99.90;;;;;;6294085;22;20405;-66
2022/10/17 03:50:37;;;;;;;7.90;4.88;;;8.90;99.90;;;;;;6294818;22;20011;-65
2022/10/17 03:53:03;;;;;;;5.68;4.93;;;9.00;99.90;;;;;;6267825;22;20011;-66
2022/10/17 03:55:29;;;;;;;3.45;3.13;;;9.00;99.90;;;;;;6292360;22;20003;-66
2022/10/17 03:57:54;;;;;;;3.38;2.97;;;9.00;99.90;;;;;;6294091;22;20087;-66
2022/10/17 04:00:20;;;;;;;2.88;2.60;;;8.90;99.90;;;;;;6292965;22;20003;-66
2022/10/17 04:02:46;;;;;;;2.85;2.55;;;8.60;99.90;;;;;;6293544;22;19995;-66
2022/10/17 04:05:11;;;;;;;8.13;3.83;;;8.50;99.90;;;;;;6289998;22;20046;-66
2022/10/17 04:07:37;;;;;;;9.15;3.20;;;8.50;99.90;;;;;;6294471;22;20014;-66
2022/10/17 04:10:03;;;;;;;4.55;3.15;;;8.40;99.90;;;;;;6291832;22;20641;-66
2022/10/17 04:12:29;;;;;;;4.88;3.78;;;8.40;99.90;;;;;;6292840;22;20043;-66
2022/10/17 04:14:54;;;;;;;4.30;3.90;;;8.40;99.90;;;;;;6291355;22;20747;-66
2022/10/17 04:17:20;;;;;;;7.20;4.57;;;8.50;99.90;;;;;;6293249;22;20562;-65
2022/10/17 04:19:45;;;;;;;6.45;4.32;;;8.50;99.90;;;;;;6295214;22;20090;-66
2022/10/17 04:22:11;;;;;;;5.45;4.00;;;8.50;99.90;;;;;;6295419;22;20340;-66
2022/10/17 04:24:36;;;;;;;5.07;4.13;;;8.50;99.90;;;;;;6293414;22;20003;-66
2022/10/17 04:27:02;;;;;;;5.10;3.88;;;8.50;99.90;;;;;;6294629;22;20003;-66
2022/10/17 04:29:29;;;;;;;7.30;4.85;;;8.50;99.90;;;;;;6294310;22;20023;-65
2022/10/17 04:31:54;;;;;;;6.32;5.30;;;8.50;99.90;;;;;;6293210;22;20007;-66
2022/10/17 04:34:20;;;;;;;4.43;3.47;;;8.50;99.90;;;;;;6292084;22;20711;-66
2022/10/17 04:36:46;;;;;;;10.32;3.58;;;8.50;99.90;;;;;;6295586;22;20011;-66
2022/10/17 04:39:12;;;;;;;5.63;4.32;;;8.50;99.90;;;;;;6294814;22;20007;-65
2022/10/17 04:41:37;;;;;;;9.93;4.43;;;8.40;99.90;;;;;;6291848;22;20223;-65
2022/10/17 04:44:03;;;;;;;4.68;4.18;;;8.30;99.90;;;;;;6294792;22;19999;-66
2022/10/17 04:46:29;;;;;;;5.30;4.43;;;8.30;99.90;;;;;;6291407;22;20011;-65
2022/10/17 04:48:54;;;;;;;4.65;4.20;;;8.30;99.90;;;;;;6261222;22;20104;-65
2022/10/17 04:51:20;;;;;;;6.30;3.80;;;8.30;99.90;;;;;;6295077;22;20007;-77
2022/10/17 04:53:45;;;;;;;5.60;4.05;;;8.30;99.90;;;;;;6293974;22;20010;-77
2022/10/17 04:56:22;;;;;;;6.07;3.42;;;8.40;99.90;;;;;;6294113;22;20018;-78
2022/10/17 04:58:47;;;;;;;6.13;3.65;;;8.40;99.90;;;;;;6290584;22;20685;-78
2022/10/17 05:01:16;;;;;;;4.32;3.92;;;8.40;99.90;;;;;;6282298;22;20007;-78
2022/10/17 05:03:42;;;;;;;4.60;3.85;;;8.40;99.90;;;;;;6289106;22;20601;-78
2022/10/17 05:06:11;;;;;;;5.20;4.43;;;8.40;99.90;;;;;;6290826;22;20011;-78
2022/10/17 05:08:37;;;;;;;5.03;3.20;;;8.30;99.90;;;;;;6289950;22;20578;-79
2022/10/17 05:11:03;;;;;;;4.07;3.38;;;8.20;99.90;;;;;;6288332;22;20079;-78
2022/10/17 05:13:29;;;;;;;5.72;3.55;;;8.00;99.90;;;;;;6292354;22;20031;-78
2022/10/17 05:15:59;;;;;;;8.65;4.30;;;8.00;99.90;;;;;;6294383;22;20041;-78
2022/10/17 05:18:25;;;;;;;4.65;4.13;;;8.10;99.90;;;;;;6293193;22;20326;-78
2022/10/17 05:20:50;;;;;;;5.20;4.30;;;8.20;99.90;;;;;;6291807;22;20102;-78
2022/10/17 05:23:16;;;;;;;5.15;3.85;;;8.20;99.90;;;;;;6262340;22;20011;-79
2022/10/17 05:25:41;;;;;;;8.30;4.10;;;8.20;99.90;;;;;;6292924;22;20041;-80
2022/10/17 05:28:07;;;;;;;3.40;3.10;;;8.30;99.90;;;;;;6293579;22;19999;-64
2022/10/17 05:30:34;;;;;;;5.45;3.83;;;8.20;99.90;;;;;;6290355;22;20003;-65
2022/10/17 05:32:59;;;;;;;5.38;4.13;;;8.20;99.90;;;;;;6289205;22;20003;-65
2022/10/17 05:35:25;;;;;;;7.32;3.53;;;8.20;99.90;;;;;;6292704;22;20084;-65
2022/10/17 05:37:50;;;;;;;4.75;3.28;;;8.30;99.90;;;;;;6288481;22;20010;-65
2022/10/17 05:40:16;;;;;;;4.70;4.00;;;8.30;99.90;;;;;;6289349;22;20068;-64
2022/10/17 05:42:48;;;;;;;5.38;3.72;;;8.20;99.90;;;;;;6281686;22;20825;-64
2022/10/17 05:45:14;;;;;;;4.07;3.10;;;8.20;99.90;;;;;;6289152;22;20100;-70
2022/10/17 05:47:40;;;;;;;3.55;3.25;;;8.20;99.90;;;;;;6289710;22;20448;-77
2022/10/17 05:50:07;;;;;;;9.48;3.50;;;8.20;99.90;;;;;;6289443;22;20003;-75
2022/10/17 05:52:33;;;;;;;4.05;3.20;;;8.30;99.90;;;;;;6288956;22;20007;-73
2022/10/17 05:54:58;;;;;;;4.45;3.80;;;8.30;99.90;;;;;;6290156;22;20048;-73
2022/10/17 05:57:25;;;;;;;7.68;3.97;;;8.40;99.90;;;;;;6294507;22;19999;-73
2022/10/17 05:59:50;;;;;;;5.60;3.92;;;8.40;99.90;;;;;;6292289;22;20813;-73
2022/10/17 06:02:16;;;;;;;6.78;4.03;;;8.50;99.90;;;;;;6289586;22;19999;-72
2022/10/17 06:04:44;;;;;;;8.57;4.50;;;8.60;99.90;;;;;;6295231;22;20086;-73
2022/10/17 06:07:11;;;;;;;4.35;3.63;;;8.70;99.90;;;;;;6299078;22;20003;-72
2022/10/17 06:09:37;;;;;;;6.10;3.95;;;8.90;99.90;;;;;;6295019;22;20007;-73
2022/10/17 06:12:03;;;;;;;5.85;4.55;;;9.00;99.90;;;;;;6296371;22;20086;-74
2022/10/17 06:14:29;;;;;;;6.22;4.40;;;9.10;99.90;;;;;;6293004;22;20240;-67
2022/10/17 06:16:54;;;;;;;5.43;4.90;;;9.20;99.90;;;;;;6293387;22;20404;-73
2022/10/17 06:19:20;;;;;;;11.45;4.47;;;9.20;99.90;;;;;;6297043;22;20334;-72
2022/10/17 06:21:45;;;;;;;5.40;4.65;;;9.30;99.90;;;;;;6297756;22;20011;-73
2022/10/17 06:24:11;;;;;;;7.72;5.15;;;9.30;99.90;;;;;;6296486;22;20027;-72
2022/10/17 06:26:37;;;;;;;5.15;4.63;;;9.40;99.90;;;;;;6297824;22;20081;-72
2022/10/17 06:29:02;;;;;;;8.40;4.60;;;9.50;99.90;;;;;;6297382;22;20101;-72
2022/10/17 06:31:28;;;;;;;8.00;5.00;;;9.50;99.90;;;;;;6296242;22;20090;-72
2022/10/17 06:33:54;;;;;;;7.03;5.65;;;9.60;99.90;;;;;;6268664;22;20464;-72
2022/10/17 06:36:19;;;;;;;6.90;5.53;;;9.60;99.90;;;;;;6295222;22;20080;-71
2022/10/17 06:38:45;;;;;;;9.05;5.93;;;9.70;99.90;;;;;;6296505;22;20006;-72
2022/10/17 06:41:13;;;;;;;8.38;5.93;;;9.90;99.90;;;;;;6298486;22;20007;-72
2022/10/17 06:43:42;;;;;;;7.78;6.10;;;10.00;99.90;;;;;;6296056;22;20003;-73
2022/10/17 06:46:08;;;;;;;7.32;6.53;;;10.10;99.90;;;;;;6295412;22;20187;-64
2022/10/17 06:48:33;;;;;;;7.82;5.57;;;10.40;99.90;;;;;;6295904;22;20332;-64
2022/10/17 06:51:00;;;;;;;7.22;6.05;;;10.60;99.90;;;;;;6296182;22;20003;-65
2022/10/17 06:53:31;;;;;;;6.38;5.65;;;10.80;99.90;;;;;;6271639;22;20500;-65
2022/10/17 06:56:05;;;;;;;7.28;5.80;;;11.10;99.90;;;;;;6298093;22;20014;-64
2022/10/17 06:58:34;;;;;;;7.55;5.68;;;11.40;99.90;;;;;;6297026;22;20003;-64
2022/10/17 07:01:04;;;;;;;8.57;6.05;;;11.70;99.90;;;;;;6295541;22;20014;-65
2022/10/17 07:03:29;;;;;;;9.80;6.13;;;11.90;99.90;;;;;;6288739;22;19996;-65
2022/10/17 07:05:56;;;;;;;9.98;6.38;;;12.20;99.90;;;;;;6296724;22;20787;-65
2022/10/17 07:08:22;;;;;;;7.78;6.50;;;12.40;99.90;;;;;;6295507;22;20862;-65
2022/10/17 07:10:48;;;;;;;10.98;6.25;;;12.60;99.90;;;;;;6292364;22;20011;-65
2022/10/17 07:13:14;;;;;;;10.05;7.00;;;12.80;99.90;;;;;;6291475;22;20005;-65
2022/10/17 07:15:40;;;;;;;9.05;6.85;;;13.00;99.90;;;;;;6268397;22;20015;-65
2022/10/17 07:18:06;;;;;;;11.95;7.85;;;13.00;99.90;;;;;;6261688;22;20139;-65
2022/10/17 07:20:32;;;;;;;10.27;7.07;;;13.30;99.90;;;;;;6263785;22;20425;-65
2022/10/17 07:22:58;;;;;;;7.50;6.80;;;13.60;99.90;;;;;;6266082;22;20337;-65
2022/10/17 07:25:24;;;;;;;8.35;6.80;;;13.80;99.90;;;;;;6264598;22;20008;-65
2022/10/17 07:27:51;;;;;;;6.97;5.88;;;14.00;99.90;;;;;;6266300;22;20011;-65
2022/10/17 07:30:16;;;;;;;10.05;6.75;;;14.20;99.90;;;;;;6262313;22;20014;-64
2022/10/17 07:32:42;;;;;;;9.35;6.60;;;14.30;99.90;;;;;;6265511;22;20514;-65
2022/10/17 07:35:09;;;;;;;8.57;6.32;;;14.50;99.90;;;;;;6261958;22;20004;-65
2022/10/17 07:37:35;;;;;;;14.85;7.03;;;14.70;99.90;;;;;;6231559;22;20022;-65
2022/10/17 07:40:01;;;;;;;12.40;6.93;;;14.80;99.90;;;;;;6260182;22;19999;-65
2022/10/17 07:42:27;;;;;;;9.30;6.40;;;15.00;99.90;;;;;;6263373;22;20007;-65
2022/10/17 07:44:53;;;;;;;12.25;6.63;;;15.10;99.90;;;;;;6261572;22;20270;-65
2022/10/17 07:47:19;;;;;;;8.85;6.93;;;15.30;99.90;;;;;;6264135;22;20034;-65
2022/10/17 07:49:45;;;;;;;8.50;6.00;;;15.40;99.90;;;;;;6260264;22;20011;-65
2022/10/17 07:52:14;;;;;;;11.07;6.13;;;15.50;99.90;;;;;;6264094;22;20291;-65
2022/10/17 07:54:40;;;;;;;8.68;6.57;;;15.60;99.90;;;;;;6262511;22;20008;-65
2022/10/17 07:57:06;;;;;;;7.72;6.10;;;15.60;99.90;;;;;;6264412;22;20007;-65
2022/10/17 07:59:33;;;;;;;6.72;5.97;;;15.70;99.90;;;;;;6264591;22;19999;-65
2022/10/17 08:01:59;;;;;;;9.13;6.43;;;15.70;99.90;;;;;;6261952;22;20060;-65
2022/10/17 08:04:25;;;;;;;8.23;5.75;;;15.90;99.90;;;;;;6263520;22;20000;-65
2022/10/17 08:06:52;;;;;;;13.93;6.40;;;16.10;99.90;;;;;;6260721;22;20017;-65
2022/10/17 08:09:17;;;;;;;10.00;6.45;;;16.30;99.90;;;;;;6257866;22;20003;-65
2022/10/17 08:11:43;;;;;;;11.07;6.07;;;16.40;99.90;;;;;;6265735;22;20075;-65
2022/10/17 08:14:09;;;;;;;16.55;7.78;;;16.50;99.90;;;;;;6259994;22;20006;-65
2022/10/17 08:16:35;;;;;;;9.00;6.65;;;16.50;99.90;;;;;;6262651;22;20010;-66
2022/10/17 08:19:01;;;;;;;15.52;7.57;;;16.60;99.90;;;;;;6294022;22;20011;-65
2022/10/17 08:21:26;;;;;;;8.45;6.90;;;16.80;99.90;;;;;;6296499;22;19999;-65
2022/10/17 08:23:52;;;;;;;11.20;6.90;;;16.80;99.90;;;;;;6290766;22;20347;-65
2022/10/17 08:26:18;;;;;;;7.60;6.60;;;16.90;99.90;;;;;;6294810;22;20704;-65
2022/10/17 08:28:45;;;;;;;9.35;6.07;;;16.90;99.90;;;;;;6294937;22;20014;-66
2022/10/17 08:31:17;;;;;;;7.30;6.18;;;17.00;99.90;;;;;;6292176;22;20003;-65
2022/10/17 08:33:44;;;;;;;12.55;6.25;;;17.10;99.90;;;;;;6295834;22;20084;-66
2022/10/17 08:36:12;;;;;;;8.68;6.15;;;17.20;99.90;;;;;;6294271;22;20632;-65
2022/10/17 08:38:38;;;;;;;9.25;6.38;;;17.30;99.90;;;;;;6295242;22;20011;-66
2022/10/17 08:41:29;;;;;;;18.77;8.23;;;17.40;99.90;;;;;;6296175;22;20007;-65
2022/10/17 08:44:22;;;;;;;8.13;6.72;;;17.50;99.90;;;;;;6293231;22;20078;-66
2022/10/17 08:46:52;;;;;;;7.15;5.75;;;17.70;99.90;;;;;;6292085;22;20022;-65
2022/10/17 08:49:36;;;;;;;10.32;6.75;;;17.80;99.90;;;;;;6291180;22;20094;-65
2022/10/17 08:52:17;;;;;;;10.77;6.90;;;17.90;99.90;;;;;;6293523;22;20010;-65
2022/10/17 08:54:46;;;;;;;9.02;5.75;;;18.00;99.90;;;;;;6295513;22;19999;-65
2022/10/17 08:57:14;;;;;;;7.03;5.78;;;18.10;99.90;;;;;;6295433;22;20425;-65
2022/10/17 08:59:40;;;;;;;23.33;8.00;;;18.10;99.90;;;;;;6267715;22;20007;-65
2022/10/17 09:02:33;;;;;;;25.20;9.75;;;18.20;99.90;;;;;;6294920;22;20056;-65
2022/10/17 09:05:08;;;;;;;7.40;5.30;;;18.10;99.90;;;;;;6294299;22;20062;-66
2022/10/17 09:07:51;;;;;;;11.02;5.38;;;18.20;99.90;;;;;;6295999;22;20017;-65
2022/10/17 09:10:17;;;;;;;10.75;6.63;;;18.10;99.90;;;;;;6296292;22;20095;-66
2022/10/17 09:13:02;;;;;;;7.10;4.85;;;18.20;99.90;;;;;;6296088;22;20444;-65
2022/10/17 09:16:06;;;;;;;6.35;5.05;;;18.20;99.90;;;;;;6294729;22;20018;-65
2022/10/17 09:18:45;;;;;;;6.18;5.25;;;18.20;99.90;;;;;;6295789;22;20360;-65
2022/10/17 09:21:19;;;;;;;7.75;4.22;;;18.20;99.90;;;;;;6294294;22;20010;-66
2022/10/17 09:23:53;;;;;;;7.03;4.63;;;18.40;99.90;;;;;;6294596;22;19995;-63
2022/10/17 09:26:19;;;;;;;8.80;5.28;;;18.50;99.90;;;;;;6294777;22;20015;-63
2022/10/17 09:28:57;;;;;;;5.40;4.82;;;18.60;99.90;;;;;;6294270;22;20018;-63
2022/10/17 09:31:28;;;;;;;5.20;4.22;;;18.70;99.90;;;;;;6293976;22;20017;-63
2022/10/17 09:33:56;;;;;;;6.80;4.38;;;18.70;99.90;;;;;;6294135;22;19999;-63
2022/10/17 09:36:36;;;;;;;4.97;3.75;;;18.80;99.90;;;;;;6294612;22;20013;-63
2022/10/17 09:39:06;;;;;;;4.72;3.83;;;19.00;99.90;;;;;;6295670;22;20006;-63
2022/10/17 09:41:42;;;;;;;7.47;3.92;;;19.00;99.90;;;;;;6294824;22;20451;-63
2022/10/17 09:44:21;;;;;;;5.80;3.65;;;19.00;99.90;;;;;;6297771;22;20007;-63
2022/10/17 09:47:10;;;;;;;6.35;4.15;;;19.10;99.90;;;;;;6295917;22;20144;-63
2022/10/17 09:49:41;;;;;;;5.47;3.88;;;19.10;99.90;;;;;;6296438;22;19999;-62
2022/10/17 09:52:32;;;;;;;6.05;3.90;;;19.20;99.90;;;;;;6298606;22;20069;-72
2022/10/17 09:55:19;;;;;;;4.38;3.97;;;19.30;99.90;;;;;;6297694;22;20519;-72
2022/10/17 09:58:00;;;;;;;5.32;3.78;;;19.40;99.90;;;;;;6297908;22;20009;-72
2022/10/17 10:00:28;;;;;;;5.60;4.10;;;19.50;99.90;;;;;;6296572;22;20014;-72
2022/10/17 10:03:21;;;;;;;12.80;4.28;;;19.50;99.90;;;;;;6297700;22;20038;-73
2022/10/17 10:06:19;;;;;;;6.55;4.10;;;19.60;99.90;;;;;;6256776;22;20475;-71
2022/10/17 10:08:53;;;;;;;4.70;3.03;;;19.70;99.90;;;;;;6298079;22;20086;-72
2022/10/17 10:11:25;;;;;;;8.07;4.38;;;19.80;99.90;;;;;;6299345;22;20031;-71
2022/10/17 10:13:51;;;;;;;6.90;3.60;;;19.90;99.90;;;;;;6294827;22;20483;-72
2022/10/17 10:16:23;;;;;;;6.85;3.25;;;20.00;99.90;;;;;;6295479;22;19999;-72
2022/10/17 10:18:49;;;;;;;4.30;2.75;;;20.00;99.90;;;;;;6295745;22;20022;-72
2022/10/17 10:21:16;;;;;;;7.90;3.80;;;20.10;99.80;;;;;;6298746;22;20007;-71
2022/10/17 10:23:43;;;;;;;7.30;3.60;;;20.10;99.90;;;;;;6297141;22;20433;-72
2022/10/17 10:26:28;;;;;;;5.20;3.28;;;20.20;99.60;;;;;;6297876;22;20007;-75
2022/10/17 10:29:04;;;;;;;4.80;2.97;;;20.20;97.80;;;;;;6296134;22;20857;-72
2022/10/17 10:31:36;;;;;;;3.90;2.67;;;20.20;98.00;;;;;;6296091;22;19996;-73
2022/10/17 10:34:18;;;;;;;7.18;2.78;;;20.30;97.40;;;;;;6296388;22;20026;-73
2022/10/17 10:36:49;;;;;;;4.75;2.63;;;20.20;95.50;;;;;;6296298;22;19999;-72
2022/10/17 10:39:46;;;;;;;4.35;2.92;;;20.20;96.60;;;;;;6298126;22;20337;-72
2022/10/17 10:42:32;;;;;;;4.78;2.97;;;20.30;97.00;;;;;;6266460;22;20556;-73
2022/10/17 10:45:20;;;;;;;4.15;3.00;;;20.40;95.70;;;;;;6296412;22;20106;-72
2022/10/17 10:47:55;;;;;;;7.43;3.20;;;20.40;95.90;;;;;;6295809;22;20003;-74
2022/10/17 10:50:27;;;;;;;4.93;3.40;;;20.50;94.80;;;;;;6298047;22;20003;-73
2022/10/17 10:53:00;;;;;;;3.10;2.78;;;20.50;95.30;;;;;;6304947;22;20005;-71
2022/10/17 10:55:33;;;;;;;9.77;2.88;;;20.50;95.40;;;;;;6308797;22;20499;-72
2022/10/17 10:58:13;;;;;;;5.05;2.67;;;20.60;95.80;;;;;;6280781;22;20003;-73
2022/10/17 11:00:38;;;;;;;7.70;2.90;;;20.70;95.00;;;;;;6307764;22;20011;-73
2022/10/17 11:03:18;;;;;;;3.10;2.50;;;20.70;95.30;;;;;;6309554;22;20003;-75
2022/10/17 11:06:03;;;;;;;2.90;2.60;;;20.90;94.90;;;;;;6307770;22;20026;-73
2022/10/17 11:08:59;;;;;;;5.22;2.85;;;20.90;94.00;;;;;;6309763;22;20102;-73
2022/10/17 11:11:38;;;;;;;5.97;2.60;;;20.90;94.20;;;;;;6235609;22;20007;-73
2022/10/17 11:14:21;;;;;;;9.80;3.38;;;20.90;94.10;;;;;;6303427;22;20043;-77
2022/10/17 11:17:33;;;;;;;4.15;2.72;;;21.00;94.00;;;;;;6302616;22;20542;-74
2022/10/17 11:20:26;;;;;;;5.25;2.70;;;21.00;93.60;;;;;;6307905;22;20045;-75
2022/10/17 11:23:00;;;;;;;6.28;3.05;;;21.00;93.60;;;;;;6308777;22;20010;-73
2022/10/17 11:25:36;;;;;;;6.05;2.58;;;21.00;94.10;;;;;;6309308;22;20094;-74
2022/10/17 11:28:09;;;;;;;5.32;2.95;;;21.10;94.00;;;;;;6308447;22;20305;-73
2022/10/17 11:30:56;;;;;;;6.10;3.15;;;21.00;92.70;;;;;;6309909;22;20050;-73
2022/10/17 11:33:43;;;;;;;4.57;3.22;;;21.00;93.20;;;;;;6311045;22;20003;-72
2022/10/17 11:36:10;;;;;;;6.63;3.30;;;21.00;93.90;;;;;;6307867;22;20007;-71
2022/10/17 11:38:53;;;;;;;3.80;2.67;;;21.00;93.90;;;;;;6310097;22;20007;-72
2022/10/17 11:41:29;;;;;;;5.18;3.33;;;20.90;93.00;;;;;;6309490;22;19995;-73
2022/10/17 11:44:24;;;;;;;6.28;3.15;;;20.90;92.60;;;;;;6309530;22;20529;-72
2022/10/17 11:46:56;;;;;;;5.38;2.88;;;20.90;92.50;;;;;;6294356;22;20015;-71
2022/10/17 11:49:25;;;;;;;;;;;20.90;92.30;;;;;;6311207;22;20010;-72
2022/10/17 11:51:58;;;;;;;8.55;3.78;;;20.80;92.20;;;;;;6306232;22;19934;-72
2022/10/17 11:54:30;;;;;;;4.47;3.45;;;20.80;92.50;;;;;;6300116;22;19999;-72
2022/10/17 11:57:36;;;;;;;5.78;3.28;;;20.80;93.80;;;;;;6297836;22;20092;-71
2022/10/17 12:00:07;;;;;;;7.78;3.78;;;20.90;93.00;;;;;;6299075;22;20165;-72
2022/10/17 12:02:51;;;;;;;3.83;3.10;;;20.90;93.00;;;;;;6297102;22;20074;-72
2022/10/17 12:05:51;;;;;;;8.32;3.53;;;21.00;93.40;;;;;;6295406;22;20015;-70
2022/10/17 12:08:42;;;;;;;5.50;3.40;;;21.00;92.20;;;;;;6297479;22;20068;-72
2022/10/17 12:11:33;;;;;;;5.35;3.15;;;20.90;91.80;;;;;;6294886;22;20011;-71
2022/10/17 12:14:00;;;;;;;7.32;3.55;;;20.90;92.30;;;;;;6291725;22;20006;-71
2022/10/17 12:16:28;;;;;;;7.13;3.30;;;21.00;93.80;;;;;;6291938;22;19995;-71
2022/10/17 12:19:00;;;;;;;7.35;3.35;;;21.10;93.50;;;;;;6293411;22;20045;-71
2022/10/17 12:21:26;;;;;;;10.25;3.80;;;21.10;92.80;;;;;;6291446;22;20039;-72
2022/10/17 12:23:53;;;;;;;4.97;3.45;;;21.20;93.50;;;;;;6294237;22;20485;-71
2022/10/17 12:26:27;;;;;;;3.67;3.20;;;21.30;92.70;;;;;;6298005;22;20499;-71
2022/10/17 12:28:53;;;;;;;5.78;3.38;;;21.40;92.60;;;;;;6297689;22;20003;-71
2022/10/17 12:31:20;;;;;;;9.35;3.35;;;21.40;92.20;;;;;;6296916;22;20366;-71
2022/10/17 12:33:51;;;;;;;5.32;3.17;;;21.40;91.20;;;;;;6298308;22;20453;-71
2022/10/17 12:36:26;;;;;;;5.47;3.25;;;21.30;90.70;;;;;;6296552;22;20009;-70
2022/10/17 12:39:00;;;;;;;6.70;3.45;;;21.30;91.30;;;;;;6297143;22;20082;-70
2022/10/17 12:41:38;;;;;;;4.45;2.63;;;21.30;91.00;;;;;;6297565;22;20067;-70
2022/10/17 12:44:12;;;;;;;3.10;2.80;;;21.30;90.90;;;;;;6298075;22;20007;-71
2022/10/17 12:46:51;;;;;;;5.38;3.22;;;21.30;90.50;;;;;;6296372;22;20068;-71
2022/10/17 12:49:45;;;;;;;7.70;3.13;;;21.30;91.40;;;;;;6293408;22;20010;-71
2022/10/17 12:52:21;;;;;;;6.53;3.40;;;21.40;91.00;;;;;;6295493;22;20003;-70
2022/10/17 12:55:02;;;;;;;5.93;3.08;;;21.40;89.10;;;;;;6296360;22;20006;-70
2022/10/17 12:57:43;;;;;;;5.05;3.00;;;21.30;89.30;;;;;;6293266;22;20013;-72
2022/10/17 13:00:34;;;;;;;7.35;3.33;;;21.20;89.00;;;;;;6294083;22;20007;-71
2022/10/17 13:03:13;;;;;;;8.88;3.35;;;21.30;89.90;;;;;;6274030;22;20456;-70
2022/10/17 13:05:44;;;;;;;10.80;3.80;;;21.30;90.20;;;;;;6295375;22;20120;-71
2022/10/17 13:08:23;;;;;;;6.25;3.45;;;21.50;90.80;;;;;;6297360;22;19995;-72
2022/10/17 13:10:50;;;;;;;9.35;3.42;;;21.70;89.40;;;;;;6296150;22;20444;-73
2022/10/17 13:13:39;;;;;;;5.47;2.95;;;21.60;88.40;;;;;;6296577;22;20780;-71
2022/10/17 13:16:05;;;;;;;11.48;2.83;;;21.70;88.20;;;;;;6266608;22;20012;-74